sensor_id;sensor_type;location;lat;lon;timestamp;temperature;humidity
27534;DHT22;14973;51.460;7.008;2023-07-13T00:01:47;17.20;1.00
27534;DHT22;14973;51.460;7.008;2023-07-13T00:04:19;17.10;1.00
27534;DHT22;14973;51.460;7.008;2023-07-13T00:06:45;17.10;1.00
27534;DHT22;14973;51.460;7.008;2023-07-13T00:09:16;17.10;1.00
27534;DHT22;14973;51.460;7.008;2023-07-13T00:11:42;17.00;1.00
27534;DHT22;14973;51.460;7.008;2023-07-13T00:14:08;17.00;1.00
27534;DHT22;14973;51.460;7.008;2023-07-13T00:16:36;17.10;1.00
27534;DHT22;14973;51.460;7.008;2023-07-13T00:19:03;17.00;1.00
27534;DHT22;14973;51.460;7.008;2023-07-13T00:21:29;16.90;1.00
27534;DHT22;14973;51.460;7.008;2023-07-13T00:23:54;16.90;1.00
27534;DHT22;14973;51.460;7.008;2023-07-13T00:26:20;16.80;1.00
27534;DHT22;14973;51.460;7.008;2023-07-13T00:28:46;16.80;1.00
27534;DHT22;14973;51.460;7.008;2023-07-13T00:31:12;16.80;12.60
27534;DHT22;14973;51.460;7.008;2023-07-13T00:33:40;16.70;1.00
27534;DHT22;14973;51.460;7.008;2023-07-13T00:36:06;16.70;99.90
27534;DHT22;14973;51.460;7.008;2023-07-13T00:38:31;16.70;84.40
27534;DHT22;14973;51.460;7.008;2023-07-13T00:40:57;16.60;99.90
27534;DHT22;14973;51.460;7.008;2023-07-13T00:43:25;16.60;99.90
27534;DHT22;14973;51.460;7.008;2023-07-13T00:48:20;16.60;1.00
27534;DHT22;14973;51.460;7.008;2023-07-13T00:50:48;16.50;1.00
27534;DHT22;14973;51.460;7.008;2023-07-13T00:53:15;16.50;1.00
27534;DHT22;14973;51.460;7.008;2023-07-13T00:55:42;16.60;10.60
27534;DHT22;14973;51.460;7.008;2023-07-13T00:58:07;16.50;99.90
27534;DHT22;14973;51.460;7.008;2023-07-13T01:00:35;16.40;1.00
27534;DHT22;14973;51.460;7.008;2023-07-13T01:03:03;16.40;1.00
27534;DHT22;14973;51.460;7.008;2023-07-13T01:05:30;16.30;1.00
27534;DHT22;14973;51.460;7.008;2023-07-13T01:07:57;16.30;99.90
27534;DHT22;14973;51.460;7.008;2023-07-13T01:10:27;16.30;99.90
27534;DHT22;14973;51.460;7.008;2023-07-13T01:12:53;16.20;99.90
27534;DHT22;14973;51.460;7.008;2023-07-13T01:15:39;16.20;1.00
27534;DHT22;14973;51.460;7.008;2023-07-13T01:18:10;16.20;99.90
27534;DHT22;14973;51.460;7.008;2023-07-13T01:20:37;16.20;1.00
27534;DHT22;14973;51.460;7.008;2023-07-13T01:23:08;16.20;99.90
27534;DHT22;14973;51.460;7.008;2023-07-13T01:25:35;16.20;99.90
27534;DHT22;14973;51.460;7.008;2023-07-13T01:28:02;16.20;99.90
27534;DHT22;14973;51.460;7.008;2023-07-13T01:30:28;16.10;1.00
27534;DHT22;14973;51.460;7.008;2023-07-13T01:32:54;16.20;99.90
27534;DHT22;14973;51.460;7.008;2023-07-13T01:35:20;16.20;99.90
27534;DHT22;14973;51.460;7.008;2023-07-13T01:37:45;16.20;99.90
27534;DHT22;14973;51.460;7.008;2023-07-13T01:40:12;16.20;99.90
27534;DHT22;14973;51.460;7.008;2023-07-13T01:42:38;16.10;99.90
27534;DHT22;14973;51.460;7.008;2023-07-13T01:45:04;16.10;1.00
27534;DHT22;14973;51.460;7.008;2023-07-13T01:47:30;16.00;99.90
27534;DHT22;14973;51.460;7.008;2023-07-13T01:49:57;16.00;99.90
27534;DHT22;14973;51.460;7.008;2023-07-13T01:52:23;16.00;99.90
27534;DHT22;14973;51.460;7.008;2023-07-13T01:54:48;16.00;99.90
27534;DHT22;14973;51.460;7.008;2023-07-13T01:57:14;16.00;99.90
27534;DHT22;14973;51.460;7.008;2023-07-13T01:59:40;16.00;1.00
27534;DHT22;14973;51.460;7.008;2023-07-13T02:02:06;16.00;1.00
27534;DHT22;14973;51.460;7.008;2023-07-13T02:04:32;16.00;99.90
27534;DHT22;14973;51.460;7.008;2023-07-13T02:06:57;16.00;1.00
27534;DHT22;14973;51.460;7.008;2023-07-13T02:09:23;16.10;1.00
27534;DHT22;14973;51.460;7.008;2023-07-13T02:11:48;15.90;99.90
27534;DHT22;14973;51.460;7.008;2023-07-13T02:14:14;15.90;99.90
27534;DHT22;14973;51.460;7.008;2023-07-13T02:16:41;15.90;1.00
27534;DHT22;14973;51.460;7.008;2023-07-13T02:19:07;15.90;99.90
27534;DHT22;14973;51.460;7.008;2023-07-13T02:21:32;15.90;99.90
27534;DHT22;14973;51.460;7.008;2023-07-13T02:23:58;15.80;99.90
27534;DHT22;14973;51.460;7.008;2023-07-13T02:26:25;15.80;1.00
27534;DHT22;14973;51.460;7.008;2023-07-13T02:28:51;15.70;99.90
27534;DHT22;14973;51.460;7.008;2023-07-13T02:31:17;15.70;1.00
27534;DHT22;14973;51.460;7.008;2023-07-13T02:33:42;15.70;1.00
27534;DHT22;14973;51.460;7.008;2023-07-13T02:36:09;15.70;1.00
27534;DHT22;14973;51.460;7.008;2023-07-13T02:38:35;15.70;1.00
27534;DHT22;14973;51.460;7.008;2023-07-13T02:41:03;15.70;1.00
27534;DHT22;14973;51.460;7.008;2023-07-13T02:43:28;15.60;1.00
27534;DHT22;14973;51.460;7.008;2023-07-13T02:45:55;15.60;1.00
27534;DHT22;14973;51.460;7.008;2023-07-13T02:48:20;15.70;1.00
27534;DHT22;14973;51.460;7.008;2023-07-13T02:50:46;15.70;1.00
27534;DHT22;14973;51.460;7.008;2023-07-13T02:53:12;15.70;1.00
27534;DHT22;14973;51.460;7.008;2023-07-13T02:55:37;15.60;1.00
27534;DHT22;14973;51.460;7.008;2023-07-13T02:58:03;15.70;99.90
27534;DHT22;14973;51.460;7.008;2023-07-13T03:00:29;15.60;99.90
27534;DHT22;14973;51.460;7.008;2023-07-13T03:02:56;15.60;99.90
27534;DHT22;14973;51.460;7.008;2023-07-13T03:05:23;15.70;99.90
27534;DHT22;14973;51.460;7.008;2023-07-13T03:07:48;15.60;99.90
27534;DHT22;14973;51.460;7.008;2023-07-13T03:10:14;15.60;99.90
27534;DHT22;14973;51.460;7.008;2023-07-13T03:12:40;15.50;99.90
27534;DHT22;14973;51.460;7.008;2023-07-13T03:15:06;15.40;1.00
27534;DHT22;14973;51.460;7.008;2023-07-13T03:17:31;15.40;1.00
27534;DHT22;14973;51.460;7.008;2023-07-13T03:19:57;15.40;1.00
27534;DHT22;14973;51.460;7.008;2023-07-13T03:22:23;15.40;1.00
27534;DHT22;14973;51.460;7.008;2023-07-13T03:24:48;15.50;1.00
27534;DHT22;14973;51.460;7.008;2023-07-13T03:27:16;15.50;1.00
27534;DHT22;14973;51.460;7.008;2023-07-13T03:29:42;15.50;1.00
27534;DHT22;14973;51.460;7.008;2023-07-13T03:32:08;15.40;1.00
27534;DHT22;14973;51.460;7.008;2023-07-13T03:34:33;15.50;1.00
27534;DHT22;14973;51.460;7.008;2023-07-13T03:36:59;15.40;1.00
27534;DHT22;14973;51.460;7.008;2023-07-13T03:39:24;15.50;1.00
27534;DHT22;14973;51.460;7.008;2023-07-13T03:41:50;15.40;1.00
27534;DHT22;14973;51.460;7.008;2023-07-13T03:44:16;15.50;1.00
27534;DHT22;14973;51.460;7.008;2023-07-13T03:46:43;15.50;1.00
27534;DHT22;14973;51.460;7.008;2023-07-13T03:49:09;15.60;1.00
27534;DHT22;14973;51.460;7.008;2023-07-13T03:51:35;15.60;1.00
27534;DHT22;14973;51.460;7.008;2023-07-13T03:54:00;15.70;1.00
27534;DHT22;14973;51.460;7.008;2023-07-13T03:56:28;15.90;99.90
27534;DHT22;14973;51.460;7.008;2023-07-13T03:58:54;15.90;99.90
27534;DHT22;14973;51.460;7.008;2023-07-13T04:01:21;16.00;99.90
27534;DHT22;14973;51.460;7.008;2023-07-13T04:03:47;16.10;99.90
27534;DHT22;14973;51.460;7.008;2023-07-13T04:06:16;16.40;1.00
27534;DHT22;14973;51.460;7.008;2023-07-13T04:08:47;16.70;99.90
27534;DHT22;14973;51.460;7.008;2023-07-13T04:11:14;17.20;99.90
27534;DHT22;14973;51.460;7.008;2023-07-13T04:13:40;17.30;1.00
27534;DHT22;14973;51.460;7.008;2023-07-13T04:16:05;17.40;1.00
27534;DHT22;14973;51.460;7.008;2023-07-13T04:18:31;17.30;80.10
27534;DHT22;14973;51.460;7.008;2023-07-13T04:20:56;17.10;1.00
27534;DHT22;14973;51.460;7.008;2023-07-13T04:23:22;16.80;99.90
27534;DHT22;14973;51.460;7.008;2023-07-13T04:25:51;16.70;99.90
27534;DHT22;14973;51.460;7.008;2023-07-13T04:28:18;16.50;1.00
27534;DHT22;14973;51.460;7.008;2023-07-13T04:30:44;16.60;99.90
27534;DHT22;14973;51.460;7.008;2023-07-13T04:33:10;16.80;1.00
27534;DHT22;14973;51.460;7.008;2023-07-13T04:35:36;17.00;99.90
27534;DHT22;14973;51.460;7.008;2023-07-13T04:38:02;17.00;99.90
27534;DHT22;14973;51.460;7.008;2023-07-13T04:40:28;17.00;94.40
27534;DHT22;14973;51.460;7.008;2023-07-13T04:42:54;17.00;1.00
27534;DHT22;14973;51.460;7.008;2023-07-13T04:45:19;17.00;99.90
27534;DHT22;14973;51.460;7.008;2023-07-13T04:47:45;17.00;99.90
27534;DHT22;14973;51.460;7.008;2023-07-13T04:50:13;16.80;99.90
27534;DHT22;14973;51.460;7.008;2023-07-13T04:52:41;16.80;99.90
27534;DHT22;14973;51.460;7.008;2023-07-13T04:55:08;16.70;28.70
27534;DHT22;14973;51.460;7.008;2023-07-13T04:57:33;16.80;99.90
27534;DHT22;14973;51.460;7.008;2023-07-13T04:59:59;16.80;99.90
27534;DHT22;14973;51.460;7.008;2023-07-13T05:02:26;16.70;1.00
27534;DHT22;14973;51.460;7.008;2023-07-13T05:04:53;16.70;91.30
27534;DHT22;14973;51.460;7.008;2023-07-13T05:07:19;16.70;99.90
27534;DHT22;14973;51.460;7.008;2023-07-13T05:09:44;16.80;1.00
27534;DHT22;14973;51.460;7.008;2023-07-13T05:12:10;16.80;1.00
27534;DHT22;14973;51.460;7.008;2023-07-13T05:14:36;16.80;1.00
27534;DHT22;14973;51.460;7.008;2023-07-13T05:17:01;16.90;1.00
27534;DHT22;14973;51.460;7.008;2023-07-13T05:19:27;17.10;99.90
27534;DHT22;14973;51.460;7.008;2023-07-13T05:21:53;17.30;1.00
27534;DHT22;14973;51.460;7.008;2023-07-13T05:24:19;17.30;1.00
27534;DHT22;14973;51.460;7.008;2023-07-13T05:26:44;17.40;99.90
27534;DHT22;14973;51.460;7.008;2023-07-13T05:29:10;17.60;99.90
27534;DHT22;14973;51.460;7.008;2023-07-13T05:31:36;18.00;99.90
27534;DHT22;14973;51.460;7.008;2023-07-13T05:34:01;18.10;1.00
27534;DHT22;14973;51.460;7.008;2023-07-13T05:36:27;18.70;1.00
27534;DHT22;14973;51.460;7.008;2023-07-13T05:38:53;20.00;31.50
27534;DHT22;14973;51.460;7.008;2023-07-13T05:41:18;21.10;1.00
27534;DHT22;14973;51.460;7.008;2023-07-13T05:43:44;21.60;1.00
27534;DHT22;14973;51.460;7.008;2023-07-13T05:46:09;23.10;99.90
27534;DHT22;14973;51.460;7.008;2023-07-13T05:48:35;24.50;99.90
27534;DHT22;14973;51.460;7.008;2023-07-13T05:51:01;25.50;99.90
27534;DHT22;14973;51.460;7.008;2023-07-13T05:53:27;25.20;99.90
27534;DHT22;14973;51.460;7.008;2023-07-13T05:55:54;24.70;99.90
27534;DHT22;14973;51.460;7.008;2023-07-13T05:58:20;23.60;99.90
27534;DHT22;14973;51.460;7.008;2023-07-13T06:00:46;23.40;99.90
27534;DHT22;14973;51.460;7.008;2023-07-13T06:03:12;23.70;99.90
27534;DHT22;14973;51.460;7.008;2023-07-13T06:05:38;23.80;99.90
27534;DHT22;14973;51.460;7.008;2023-07-13T06:08:05;24.00;99.90
27534;DHT22;14973;51.460;7.008;2023-07-13T06:10:33;24.60;99.90
27534;DHT22;14973;51.460;7.008;2023-07-13T06:12:59;24.80;99.90
27534;DHT22;14973;51.460;7.008;2023-07-13T06:15:24;25.50;99.90
27534;DHT22;14973;51.460;7.008;2023-07-13T06:17:50;27.20;99.90
27534;DHT22;14973;51.460;7.008;2023-07-13T06:20:15;28.90;99.90
27534;DHT22;14973;51.460;7.008;2023-07-13T06:22:41;29.70;99.90
27534;DHT22;14973;51.460;7.008;2023-07-13T06:25:07;30.20;99.90
27534;DHT22;14973;51.460;7.008;2023-07-13T06:27:32;31.20;99.90
27534;DHT22;14973;51.460;7.008;2023-07-13T06:29:58;32.00;99.90
27534;DHT22;14973;51.460;7.008;2023-07-13T06:32:23;32.10;99.90
27534;DHT22;14973;51.460;7.008;2023-07-13T06:34:49;32.60;99.90
27534;DHT22;14973;51.460;7.008;2023-07-13T06:37:17;32.70;99.90
27534;DHT22;14973;51.460;7.008;2023-07-13T06:39:43;32.40;99.90
27534;DHT22;14973;51.460;7.008;2023-07-13T06:42:08;32.60;99.90
27534;DHT22;14973;51.460;7.008;2023-07-13T06:44:34;32.70;99.90
27534;DHT22;14973;51.460;7.008;2023-07-13T06:47:00;33.00;99.90
27534;DHT22;14973;51.460;7.008;2023-07-13T06:49:25;34.10;99.90
27534;DHT22;14973;51.460;7.008;2023-07-13T06:51:51;34.60;99.90
27534;DHT22;14973;51.460;7.008;2023-07-13T06:54:17;34.90;99.90
27534;DHT22;14973;51.460;7.008;2023-07-13T06:56:42;35.10;99.90
27534;DHT22;14973;51.460;7.008;2023-07-13T06:59:08;35.10;99.90
27534;DHT22;14973;51.460;7.008;2023-07-13T07:01:33;35.40;99.90
27534;DHT22;14973;51.460;7.008;2023-07-13T07:03:59;35.30;99.90
27534;DHT22;14973;51.460;7.008;2023-07-13T07:06:24;34.50;99.90
27534;DHT22;14973;51.460;7.008;2023-07-13T07:08:51;34.20;99.90
27534;DHT22;14973;51.460;7.008;2023-07-13T07:11:20;34.40;99.90
27534;DHT22;14973;51.460;7.008;2023-07-13T07:13:47;34.90;99.90
27534;DHT22;14973;51.460;7.008;2023-07-13T07:16:13;34.60;99.90
27534;DHT22;14973;51.460;7.008;2023-07-13T07:18:39;34.80;99.90
27534;DHT22;14973;51.460;7.008;2023-07-13T07:21:04;34.90;99.90
27534;DHT22;14973;51.460;7.008;2023-07-13T07:23:30;34.70;99.90
27534;DHT22;14973;51.460;7.008;2023-07-13T07:25:56;33.90;99.90
27534;DHT22;14973;51.460;7.008;2023-07-13T07:28:21;32.40;99.90
27534;DHT22;14973;51.460;7.008;2023-07-13T07:30:48;31.90;99.90
27534;DHT22;14973;51.460;7.008;2023-07-13T07:33:14;31.10;99.90
27534;DHT22;14973;51.460;7.008;2023-07-13T07:35:39;30.90;99.90
27534;DHT22;14973;51.460;7.008;2023-07-13T07:38:05;31.00;99.90
27534;DHT22;14973;51.460;7.008;2023-07-13T07:40:31;30.10;99.90
27534;DHT22;14973;51.460;7.008;2023-07-13T07:42:57;30.10;99.90
27534;DHT22;14973;51.460;7.008;2023-07-13T07:45:23;30.50;99.90
27534;DHT22;14973;51.460;7.008;2023-07-13T07:47:49;31.90;99.90
27534;DHT22;14973;51.460;7.008;2023-07-13T07:50:15;33.30;99.90
27534;DHT22;14973;51.460;7.008;2023-07-13T07:52:41;34.40;99.90
27534;DHT22;14973;51.460;7.008;2023-07-13T07:55:08;35.00;99.90
27534;DHT22;14973;51.460;7.008;2023-07-13T07:57:33;35.30;99.90
27534;DHT22;14973;51.460;7.008;2023-07-13T07:59:59;35.80;99.90
27534;DHT22;14973;51.460;7.008;2023-07-13T08:02:25;36.90;99.90
27534;DHT22;14973;51.460;7.008;2023-07-13T08:04:51;36.00;99.90
27534;DHT22;14973;51.460;7.008;2023-07-13T08:07:16;36.90;99.90
27534;DHT22;14973;51.460;7.008;2023-07-13T08:09:42;37.00;99.90
27534;DHT22;14973;51.460;7.008;2023-07-13T08:12:08;36.00;99.90
27534;DHT22;14973;51.460;7.008;2023-07-13T08:14:34;35.50;99.90
27534;DHT22;14973;51.460;7.008;2023-07-13T08:16:59;35.20;99.90
27534;DHT22;14973;51.460;7.008;2023-07-13T08:19:25;34.60;99.90
27534;DHT22;14973;51.460;7.008;2023-07-13T08:21:50;35.20;99.90
27534;DHT22;14973;51.460;7.008;2023-07-13T08:24:16;34.90;99.90
27534;DHT22;14973;51.460;7.008;2023-07-13T08:26:44;35.40;99.90
27534;DHT22;14973;51.460;7.008;2023-07-13T08:29:10;35.50;99.90
27534;DHT22;14973;51.460;7.008;2023-07-13T08:31:35;36.30;99.90
27534;DHT22;14973;51.460;7.008;2023-07-13T08:34:01;36.10;99.90
27534;DHT22;14973;51.460;7.008;2023-07-13T08:36:26;36.50;99.90
27534;DHT22;14973;51.460;7.008;2023-07-13T08:38:53;35.20;99.90
27534;DHT22;14973;51.460;7.008;2023-07-13T08:41:18;34.10;99.90
27534;DHT22;14973;51.460;7.008;2023-07-13T08:43:58;33.80;99.90
27534;DHT22;14973;51.460;7.008;2023-07-13T08:46:39;33.60;99.90
27534;DHT22;14973;51.460;7.008;2023-07-13T08:49:17;34.00;99.90
27534;DHT22;14973;51.460;7.008;2023-07-13T08:51:51;34.30;99.90
27534;DHT22;14973;51.460;7.008;2023-07-13T08:54:24;34.00;99.90
27534;DHT22;14973;51.460;7.008;2023-07-13T08:56:53;33.70;99.90
27534;DHT22;14973;51.460;7.008;2023-07-13T08:59:21;33.10;99.90
27534;DHT22;14973;51.460;7.008;2023-07-13T09:04:23;31.10;99.90
27534;DHT22;14973;51.460;7.008;2023-07-13T09:09:27;31.20;99.90
27534;DHT22;14973;51.460;7.008;2023-07-13T09:12:07;30.10;99.90
27534;DHT22;14973;51.460;7.008;2023-07-13T09:17:17;28.90;99.90
27534;DHT22;14973;51.460;7.008;2023-07-13T09:19:44;29.00;99.90
27534;DHT22;14973;51.460;7.008;2023-07-13T09:22:15;29.30;99.90
27534;DHT22;14973;51.460;7.008;2023-07-13T09:25:04;29.70;99.90
27534;DHT22;14973;51.460;7.008;2023-07-13T09:27:43;30.10;99.90
27534;DHT22;14973;51.460;7.008;2023-07-13T09:30:23;29.80;99.90
27534;DHT22;14973;51.460;7.008;2023-07-13T09:32:52;29.30;99.90
27534;DHT22;14973;51.460;7.008;2023-07-13T09:35:25;28.80;99.90
27534;DHT22;14973;51.460;7.008;2023-07-13T09:37:58;28.20;99.90
27534;DHT22;14973;51.460;7.008;2023-07-13T09:40:34;28.20;99.90
27534;DHT22;14973;51.460;7.008;2023-07-13T09:43:00;28.60;99.90
27534;DHT22;14973;51.460;7.008;2023-07-13T09:45:30;28.80;99.90
27534;DHT22;14973;51.460;7.008;2023-07-13T09:48:04;28.70;99.90
27534;DHT22;14973;51.460;7.008;2023-07-13T09:50:30;28.00;99.90
27534;DHT22;14973;51.460;7.008;2023-07-13T09:52:56;28.00;99.90
27534;DHT22;14973;51.460;7.008;2023-07-13T09:55:36;27.80;99.90
27534;DHT22;14973;51.460;7.008;2023-07-13T09:58:21;27.00;99.90
27534;DHT22;14973;51.460;7.008;2023-07-13T10:01:03;26.60;99.90
27534;DHT22;14973;51.460;7.008;2023-07-13T10:03:34;26.30;99.90
27534;DHT22;14973;51.460;7.008;2023-07-13T10:06:20;27.30;99.90
27534;DHT22;14973;51.460;7.008;2023-07-13T10:08:48;27.50;99.90
27534;DHT22;14973;51.460;7.008;2023-07-13T10:11:26;27.80;99.90
27534;DHT22;14973;51.460;7.008;2023-07-13T10:13:58;27.70;99.90
27534;DHT22;14973;51.460;7.008;2023-07-13T10:16:28;26.90;99.90
27534;DHT22;14973;51.460;7.008;2023-07-13T10:19:01;26.40;99.90
27534;DHT22;14973;51.460;7.008;2023-07-13T10:21:35;26.10;99.90
27534;DHT22;14973;51.460;7.008;2023-07-13T10:26:56;25.00;99.90
27534;DHT22;14973;51.460;7.008;2023-07-13T10:29:25;24.50;99.90
27534;DHT22;14973;51.460;7.008;2023-07-13T10:31:51;24.10;99.90
27534;DHT22;14973;51.460;7.008;2023-07-13T10:34:17;24.20;99.90
27534;DHT22;14973;51.460;7.008;2023-07-13T10:36:47;24.90;99.90
27534;DHT22;14973;51.460;7.008;2023-07-13T10:39:26;25.50;99.90
27534;DHT22;14973;51.460;7.008;2023-07-13T10:42:04;25.80;99.90
27534;DHT22;14973;51.460;7.008;2023-07-13T10:44:32;25.70;99.90
27534;DHT22;14973;51.460;7.008;2023-07-13T10:47:15;25.30;99.90
27534;DHT22;14973;51.460;7.008;2023-07-13T10:49:42;25.40;99.90
27534;DHT22;14973;51.460;7.008;2023-07-13T10:58:22;25.70;99.90
27534;DHT22;14973;51.460;7.008;2023-07-13T11:03:37;26.30;99.90
27534;DHT22;14973;51.460;7.008;2023-07-13T11:06:28;26.30;99.90
27534;DHT22;14973;51.460;7.008;2023-07-13T11:08:56;26.80;99.90
27534;DHT22;14973;51.460;7.008;2023-07-13T11:18:52;25.90;99.90
27534;DHT22;14973;51.460;7.008;2023-07-13T11:21:25;26.20;99.90
27534;DHT22;14973;51.460;7.008;2023-07-13T11:23:54;26.40;99.90
27534;DHT22;14973;51.460;7.008;2023-07-13T11:26:43;26.50;99.90
27534;DHT22;14973;51.460;7.008;2023-07-13T11:31:56;25.90;99.90
27534;DHT22;14973;51.460;7.008;2023-07-13T11:34:28;25.80;99.90
27534;DHT22;14973;51.460;7.008;2023-07-13T11:36:57;25.90;99.90
27534;DHT22;14973;51.460;7.008;2023-07-13T11:39:26;26.00;99.90
27534;DHT22;14973;51.460;7.008;2023-07-13T11:41:56;26.00;99.90
27534;DHT22;14973;51.460;7.008;2023-07-13T11:44:24;26.00;99.90
27534;DHT22;14973;51.460;7.008;2023-07-13T11:46:59;25.90;99.90
27534;DHT22;14973;51.460;7.008;2023-07-13T11:49:30;26.10;99.90
27534;DHT22;14973;51.460;7.008;2023-07-13T11:51:57;26.00;99.90
27534;DHT22;14973;51.460;7.008;2023-07-13T11:56:55;26.00;99.90
27534;DHT22;14973;51.460;7.008;2023-07-13T11:59:21;26.10;99.90
27534;DHT22;14973;51.460;7.008;2023-07-13T12:01:50;26.30;99.90
27534;DHT22;14973;51.460;7.008;2023-07-13T12:04:25;26.20;99.90
27534;DHT22;14973;51.460;7.008;2023-07-13T12:06:57;26.10;99.90
27534;DHT22;14973;51.460;7.008;2023-07-13T12:09:26;26.00;99.90
27534;DHT22;14973;51.460;7.008;2023-07-13T12:11:53;26.00;99.90
27534;DHT22;14973;51.460;7.008;2023-07-13T12:14:19;25.80;99.90
27534;DHT22;14973;51.460;7.008;2023-07-13T12:16:47;25.70;99.90
27534;DHT22;14973;51.460;7.008;2023-07-13T12:19:23;25.80;99.90
27534;DHT22;14973;51.460;7.008;2023-07-13T12:21:49;25.80;99.90
27534;DHT22;14973;51.460;7.008;2023-07-13T12:24:18;26.00;99.90
27534;DHT22;14973;51.460;7.008;2023-07-13T12:26:44;26.30;99.90
27534;DHT22;14973;51.460;7.008;2023-07-13T12:29:17;26.40;99.90
27534;DHT22;14973;51.460;7.008;2023-07-13T12:31:45;26.40;99.90
27534;DHT22;14973;51.460;7.008;2023-07-13T12:36:41;26.60;99.90
27534;DHT22;14973;51.460;7.008;2023-07-13T12:39:18;26.90;99.90
27534;DHT22;14973;51.460;7.008;2023-07-13T12:41:45;27.00;99.90
27534;DHT22;14973;51.460;7.008;2023-07-13T12:44:30;27.00;99.90
27534;DHT22;14973;51.460;7.008;2023-07-13T12:47:02;27.00;99.90
27534;DHT22;14973;51.460;7.008;2023-07-13T12:49:31;26.90;99.90
27534;DHT22;14973;51.460;7.008;2023-07-13T12:52:01;26.90;99.90
27534;DHT22;14973;51.460;7.008;2023-07-13T12:54:28;26.80;99.90
27534;DHT22;14973;51.460;7.008;2023-07-13T12:56:56;26.90;99.90
27534;DHT22;14973;51.460;7.008;2023-07-13T12:59:24;26.70;99.90
27534;DHT22;14973;51.460;7.008;2023-07-13T13:01:53;26.50;99.90
27534;DHT22;14973;51.460;7.008;2023-07-13T13:04:19;26.00;99.90
27534;DHT22;14973;51.460;7.008;2023-07-13T13:06:47;25.80;99.90
27534;DHT22;14973;51.460;7.008;2023-07-13T13:09:14;25.40;99.90
27534;DHT22;14973;51.460;7.008;2023-07-13T13:11:41;24.90;99.90
27534;DHT22;14973;51.460;7.008;2023-07-13T13:14:07;24.50;99.90
27534;DHT22;14973;51.460;7.008;2023-07-13T13:16:35;24.30;99.90
27534;DHT22;14973;51.460;7.008;2023-07-13T13:19:18;24.20;99.90
27534;DHT22;14973;51.460;7.008;2023-07-13T13:21:45;24.00;99.90
27534;DHT22;14973;51.460;7.008;2023-07-13T13:24:24;23.60;99.90
27534;DHT22;14973;51.460;7.008;2023-07-13T13:26:52;23.40;99.90
27534;DHT22;14973;51.460;7.008;2023-07-13T13:29:20;23.20;99.90
27534;DHT22;14973;51.460;7.008;2023-07-13T13:31:47;23.00;99.90
27534;DHT22;14973;51.460;7.008;2023-07-13T13:34:15;22.80;99.90
27534;DHT22;14973;51.460;7.008;2023-07-13T13:36:42;22.50;99.90
27534;DHT22;14973;51.460;7.008;2023-07-13T13:41:47;22.30;99.90
27534;DHT22;14973;51.460;7.008;2023-07-13T13:44:15;22.30;99.90
27534;DHT22;14973;51.460;7.008;2023-07-13T13:46:41;22.60;99.90
27534;DHT22;14973;51.460;7.008;2023-07-13T13:49:21;22.90;99.90
27534;DHT22;14973;51.460;7.008;2023-07-13T13:51:49;23.30;99.90
27534;DHT22;14973;51.460;7.008;2023-07-13T13:54:16;23.30;99.90
27534;DHT22;14973;51.460;7.008;2023-07-13T13:56:44;23.50;99.90
27534;DHT22;14973;51.460;7.008;2023-07-13T13:59:10;23.70;99.90
27534;DHT22;14973;51.460;7.008;2023-07-13T14:01:36;24.00;99.90
27534;DHT22;14973;51.460;7.008;2023-07-13T14:04:03;24.20;99.90
27534;DHT22;14973;51.460;7.008;2023-07-13T14:06:29;24.50;99.90
27534;DHT22;14973;51.460;7.008;2023-07-13T14:08:54;24.50;99.90
27534;DHT22;14973;51.460;7.008;2023-07-13T14:11:21;24.80;99.90
27534;DHT22;14973;51.460;7.008;2023-07-13T14:13:54;24.80;99.90
27534;DHT22;14973;51.460;7.008;2023-07-13T14:16:21;24.50;99.90
27534;DHT22;14973;51.460;7.008;2023-07-13T14:18:51;24.10;99.90
27534;DHT22;14973;51.460;7.008;2023-07-13T14:21:18;23.90;99.90
27534;DHT22;14973;51.460;7.008;2023-07-13T14:23:46;23.60;99.90
27534;DHT22;14973;51.460;7.008;2023-07-13T14:26:14;23.50;99.90
27534;DHT22;14973;51.460;7.008;2023-07-13T14:28:43;23.40;99.90
27534;DHT22;14973;51.460;7.008;2023-07-13T14:31:10;23.20;99.90
27534;DHT22;14973;51.460;7.008;2023-07-13T14:33:36;23.00;99.90
27534;DHT22;14973;51.460;7.008;2023-07-13T14:36:03;22.80;99.90
27534;DHT22;14973;51.460;7.008;2023-07-13T14:38:31;22.90;99.90
27534;DHT22;14973;51.460;7.008;2023-07-13T14:40:56;22.80;99.90
27534;DHT22;14973;51.460;7.008;2023-07-13T14:43:22;22.90;99.90
27534;DHT22;14973;51.460;7.008;2023-07-13T14:45:49;22.90;99.90
27534;DHT22;14973;51.460;7.008;2023-07-13T14:48:25;22.80;99.90
27534;DHT22;14973;51.460;7.008;2023-07-13T14:50:55;22.80;99.90
27534;DHT22;14973;51.460;7.008;2023-07-13T14:53:21;22.90;99.90
27534;DHT22;14973;51.460;7.008;2023-07-13T14:55:47;23.20;99.90
27534;DHT22;14973;51.460;7.008;2023-07-13T14:58:13;23.40;99.90
27534;DHT22;14973;51.460;7.008;2023-07-13T15:00:40;23.60;99.90
27534;DHT22;14973;51.460;7.008;2023-07-13T15:03:08;23.70;99.90
27534;DHT22;14973;51.460;7.008;2023-07-13T15:05:39;23.90;99.90
27534;DHT22;14973;51.460;7.008;2023-07-13T15:08:05;24.20;99.90
27534;DHT22;14973;51.460;7.008;2023-07-13T15:10:33;24.30;99.90
27534;DHT22;14973;51.460;7.008;2023-07-13T15:13:19;24.60;99.90
27534;DHT22;14973;51.460;7.008;2023-07-13T15:15:47;24.40;99.90
27534;DHT22;14973;51.460;7.008;2023-07-13T15:18:16;24.20;99.90
27534;DHT22;14973;51.460;7.008;2023-07-13T15:20:44;24.20;99.90
27534;DHT22;14973;51.460;7.008;2023-07-13T15:23:11;23.90;99.90
27534;DHT22;14973;51.460;7.008;2023-07-13T15:25:37;24.10;99.90
27534;DHT22;14973;51.460;7.008;2023-07-13T15:28:03;24.10;99.90
27534;DHT22;14973;51.460;7.008;2023-07-13T15:30:31;24.10;99.90
27534;DHT22;14973;51.460;7.008;2023-07-13T15:32:58;24.00;99.90
27534;DHT22;14973;51.460;7.008;2023-07-13T15:35:26;24.20;99.90
27534;DHT22;14973;51.460;7.008;2023-07-13T15:37:53;24.00;99.90
27534;DHT22;14973;51.460;7.008;2023-07-13T15:40:19;23.90;99.90
27534;DHT22;14973;51.460;7.008;2023-07-13T15:42:47;23.60;99.90
27534;DHT22;14973;51.460;7.008;2023-07-13T15:45:21;23.00;99.90
27534;DHT22;14973;51.460;7.008;2023-07-13T15:47:49;22.50;1.00
27534;DHT22;14973;51.460;7.008;2023-07-13T15:50:16;22.00;99.90
27534;DHT22;14973;51.460;7.008;2023-07-13T15:52:45;21.40;1.00
27534;DHT22;14973;51.460;7.008;2023-07-13T15:55:13;21.00;1.00
27534;DHT22;14973;51.460;7.008;2023-07-13T15:57:47;21.00;99.90
27534;DHT22;14973;51.460;7.008;2023-07-13T16:02:46;20.70;99.90
27534;DHT22;14973;51.460;7.008;2023-07-13T16:05:13;20.60;1.00
27534;DHT22;14973;51.460;7.008;2023-07-13T16:07:40;20.50;1.00
27534;DHT22;14973;51.460;7.008;2023-07-13T16:10:07;20.50;85.00
27534;DHT22;14973;51.460;7.008;2023-07-13T16:12:33;20.60;1.00
27534;DHT22;14973;51.460;7.008;2023-07-13T16:14:59;20.70;99.90
27534;DHT22;14973;51.460;7.008;2023-07-13T16:17:24;20.80;1.00
27534;DHT22;14973;51.460;7.008;2023-07-13T16:19:50;20.90;1.00
27534;DHT22;14973;51.460;7.008;2023-07-13T16:22:17;21.00;1.00